createdAt,value
2016-06-18T00:00:50.554Z,0
2016-06-18T00:01:50.027Z,0
2016-06-18T00:02:49.420Z,0
2016-06-18T00:03:50.627Z,0
2016-06-18T00:04:50.052Z,0
2016-06-18T00:05:49.447Z,0
2016-06-18T00:06:50.090Z,0
2016-06-18T00:07:50.094Z,0
2016-06-18T00:08:49.519Z,0
2016-06-18T00:09:49.539Z,0
2016-06-18T00:10:50.215Z,0
2016-06-18T00:11:49.593Z,0
2016-06-18T00:12:49.612Z,0
2016-06-18T00:13:49.647Z,0
2016-06-18T00:14:49.650Z,0
2016-06-18T00:15:49.699Z,0
2016-06-18T00:16:50.360Z,0
2016-06-18T00:17:49.722Z,0
2016-06-18T00:18:49.757Z,0
2016-06-18T00:19:49.792Z,0
2016-06-18T00:20:49.811Z,0
2016-06-18T00:21:49.831Z,0
2016-06-18T00:22:49.865Z,0
2016-06-18T00:23:50.525Z,0
2016-06-18T00:24:49.903Z,0
2016-06-18T00:25:49.922Z,0
2016-06-18T00:26:50.613Z,0
2016-06-18T00:27:49.976Z,0
2016-06-18T00:28:50.011Z,0
2016-06-18T00:29:50.045Z,0
2016-06-18T00:30:50.689Z,0
2016-06-18T00:31:50.069Z,0
2016-06-18T00:32:50.102Z,0
2016-06-18T00:33:50.137Z,0
2016-06-18T00:34:50.156Z,0
2016-06-18T00:35:50.191Z,0
2016-06-18T00:36:50.211Z,0
2016-06-18T00:37:50.230Z,0
2016-06-18T00:38:50.248Z,0
2016-06-18T00:39:50.283Z,0
2016-06-18T00:40:50.302Z,0
2016-06-18T00:41:50.322Z,0
2016-06-18T00:42:50.357Z,0
2016-06-18T00:43:50.407Z,0
2016-06-18T00:44:50.394Z,0
2016-06-18T00:45:50.413Z,0
2016-06-18T00:46:51.073Z,0
2016-06-18T00:47:50.482Z,0
2016-06-18T00:48:50.486Z,0
2016-06-18T00:49:50.521Z,0
2016-06-18T00:50:50.539Z,0
2016-06-18T00:51:50.560Z,0
2016-06-18T00:52:50.578Z,0
2016-06-18T00:53:51.253Z,0
2016-06-18T00:54:50.648Z,0
2016-06-18T00:55:50.651Z,0
2016-06-18T00:56:50.749Z,0
2016-06-18T00:57:50.705Z,0
2016-06-18T00:58:50.740Z,0
2016-06-18T00:59:50.759Z,0
2016-06-18T01:00:50.778Z,0
2016-06-18T01:01:50.797Z,0
2016-06-18T01:02:50.831Z,0
2016-06-18T01:03:50.866Z,0
2016-06-18T01:04:51.510Z,0
2016-06-18T01:05:50.905Z,0
2016-06-18T01:06:50.923Z,0
2016-06-18T01:07:50.959Z,0
2016-06-18T01:08:50.977Z,0
2016-06-18T01:09:51.011Z,0
2016-06-18T01:10:51.031Z,0
2016-06-18T01:11:51.129Z,0
2016-06-18T01:12:51.757Z,0
2016-06-18T01:13:51.292Z,0
2016-06-18T01:14:51.311Z,0
2016-06-18T01:15:51.295Z,0
2016-06-18T01:16:51.314Z,0
2016-06-18T01:17:51.333Z,0
2016-06-18T01:18:51.336Z,0
2016-06-18T01:19:51.340Z,0
2016-06-18T01:20:51.343Z,0
2016-06-18T01:21:52.553Z,0
2016-06-18T01:22:51.491Z,0
2016-06-18T01:23:51.510Z,0
2016-06-18T01:24:51.530Z,0
2016-06-18T01:25:51.517Z,0
2016-06-18T01:26:51.505Z,0
2016-06-18T01:27:51.509Z,0
2016-06-18T01:28:52.137Z,0
2016-06-18T01:29:51.546Z,0
2016-06-18T01:30:51.566Z,0
2016-06-18T01:31:51.570Z,0
2016-06-18T01:32:52.198Z,0
2016-06-18T01:33:51.608Z,0
2016-06-18T01:34:51.627Z,0
2016-06-18T01:35:51.630Z,0
2016-06-18T01:36:51.664Z,0
2016-06-18T01:37:51.715Z,0
2016-06-18T01:38:51.688Z,0
2016-06-18T01:39:51.722Z,0
2016-06-18T01:40:51.773Z,0
2016-06-18T01:41:51.776Z,0
2016-06-18T01:42:52.420Z,0
2016-06-18T01:43:51.830Z,0
2016-06-18T01:44:51.848Z,0
2016-06-18T01:45:51.868Z,0
2016-06-18T01:46:51.903Z,0
2016-06-18T01:47:51.922Z,0
2016-06-18T01:48:51.956Z,0
2016-06-18T01:49:51.976Z,0
2016-06-18T01:50:51.995Z,0
2016-06-18T01:51:52.013Z,0
2016-06-18T01:52:52.032Z,0
2016-06-18T01:53:52.068Z,0
2016-06-18T01:54:52.121Z,0
2016-06-18T01:55:52.111Z,0
2016-06-18T01:56:52.758Z,0
2016-06-18T01:57:52.171Z,0
2016-06-18T01:58:52.193Z,0
2016-06-18T01:59:52.839Z,0
2016-06-18T02:00:52.249Z,0
2016-06-18T02:01:53.504Z,0
2016-06-18T02:02:52.306Z,0
2016-06-18T02:03:52.935Z,0
2016-06-18T02:04:52.377Z,0
2016-06-18T02:05:52.381Z,0
2016-06-18T02:06:52.400Z,0
2016-06-18T02:07:52.404Z,0
2016-06-18T02:08:52.471Z,0
2016-06-18T02:09:52.475Z,0
2016-06-18T02:10:53.837Z,0
2016-06-18T02:11:53.154Z,0
2016-06-18T02:12:53.173Z,0
2016-06-18T02:13:52.568Z,0
2016-06-18T02:14:52.587Z,0
2016-06-18T02:15:52.622Z,0
2016-06-18T02:16:52.640Z,0
2016-06-18T02:17:53.285Z,0
2016-06-18T02:18:52.679Z,0
2016-06-18T02:19:52.697Z,0
2016-06-18T02:20:52.733Z,0
2016-06-18T02:21:53.392Z,0
2016-06-18T02:22:52.802Z,0
2016-06-18T02:23:52.805Z,0
2016-06-18T02:24:52.856Z,0
2016-06-18T02:25:52.859Z,0
2016-06-18T02:26:52.879Z,0
2016-06-18T02:27:53.585Z,0
2016-06-18T02:28:52.931Z,0
2016-06-18T02:29:52.951Z,0
2016-06-18T02:30:52.971Z,0
2016-06-18T02:31:54.239Z,4
2016-06-18T02:32:53.025Z,4
2016-06-18T02:33:53.653Z,4
2016-06-18T02:34:53.062Z,4
2016-06-18T02:35:53.097Z,0
2016-06-18T02:36:53.117Z,4
2016-06-18T02:37:54.384Z,4
2016-06-18T02:38:53.154Z,4
2016-06-18T02:39:54.455Z,8
2016-06-18T02:40:53.834Z,4
2016-06-18T02:41:53.336Z,4
2016-06-18T02:42:53.340Z,8
2016-06-18T02:43:53.483Z,4
2016-06-18T02:44:53.487Z,8
2016-06-18T02:45:53.491Z,12
2016-06-18T02:46:53.509Z,8
2016-06-18T02:47:53.513Z,12
2016-06-18T02:48:53.533Z,12
2016-06-18T02:49:54.146Z,12
2016-06-18T02:50:53.539Z,12
2016-06-18T02:51:53.543Z,16
2016-06-18T02:52:53.562Z,16
2016-06-18T02:53:53.706Z,20
2016-06-18T02:54:54.334Z,20
2016-06-18T02:55:53.604Z,24
2016-06-18T02:56:53.622Z,24
2016-06-18T02:57:53.704Z,20
2016-06-18T02:58:53.708Z,24
2016-06-18T02:59:53.758Z,24
2016-06-18T03:00:53.761Z,28
2016-06-18T03:01:53.765Z,32
2016-06-18T03:02:53.784Z,32
2016-06-18T03:03:53.772Z,36
2016-06-18T03:04:53.775Z,36
2016-06-18T03:05:53.794Z,40
2016-06-18T03:06:53.829Z,40
2016-06-18T03:07:53.833Z,44
2016-06-18T03:08:53.867Z,48
2016-06-18T03:09:53.902Z,48
2016-06-18T03:10:53.937Z,56
2016-06-18T03:11:53.940Z,60
2016-06-18T03:12:53.959Z,60
2016-06-18T03:13:53.994Z,64
2016-06-18T03:14:53.997Z,64
2016-06-18T03:15:54.032Z,64
2016-06-18T03:16:54.677Z,68
2016-06-18T03:17:54.695Z,72
2016-06-18T03:18:54.105Z,76
2016-06-18T03:19:54.749Z,76
2016-06-18T03:20:54.815Z,84
2016-06-18T03:21:54.178Z,96
2016-06-18T03:22:54.838Z,108
2016-06-18T03:23:54.231Z,120
2016-06-18T03:24:54.235Z,120
2016-06-18T03:25:54.270Z,132
2016-06-18T03:26:54.304Z,152
2016-06-18T03:27:54.932Z,164
2016-06-18T03:28:54.343Z,168
2016-06-18T03:29:54.377Z,156
2016-06-18T03:30:55.006Z,148
2016-06-18T03:31:54.416Z,148
2016-06-18T03:32:54.434Z,152
2016-06-18T03:33:54.469Z,164
2016-06-18T03:34:55.098Z,192
2016-06-18T03:35:55.133Z,208
2016-06-18T03:36:54.541Z,224
2016-06-18T03:37:54.561Z,236
2016-06-18T03:38:54.581Z,224
2016-06-18T03:39:54.615Z,212
2016-06-18T03:40:54.635Z,224
2016-06-18T03:41:54.653Z,224
2016-06-18T03:42:55.312Z,232
2016-06-18T03:43:54.707Z,232
2016-06-18T03:44:54.727Z,220
2016-06-18T03:45:55.370Z,204
2016-06-18T03:46:54.764Z,196
2016-06-18T03:47:54.799Z,200
2016-06-18T03:48:54.818Z,208
2016-06-18T03:49:54.853Z,236
2016-06-18T03:50:56.137Z,272
2016-06-18T03:51:55.516Z,304
2016-06-18T03:52:54.941Z,300
2016-06-18T03:53:55.539Z,340
2016-06-18T03:54:54.964Z,388
2016-06-18T03:55:54.982Z,396
2016-06-18T03:56:55.611Z,320
2016-06-18T03:57:55.036Z,268
2016-06-18T03:58:55.681Z,244
2016-06-18T03:59:55.684Z,220
2016-06-18T04:00:55.094Z,244
2016-06-18T04:01:55.128Z,288
2016-06-18T04:02:55.757Z,308
2016-06-18T04:03:55.167Z,296
2016-06-18T04:04:55.202Z,268
2016-06-18T04:05:55.830Z,252
2016-06-18T04:06:55.224Z,240
2016-06-18T04:07:55.259Z,208
2016-06-18T04:08:55.294Z,184
2016-06-18T04:09:55.297Z,180
2016-06-18T04:10:55.349Z,184
2016-06-18T04:11:55.359Z,184
2016-06-18T04:12:55.400Z,180
2016-06-18T04:13:55.441Z,188
2016-06-18T04:14:56.106Z,196
2016-06-18T04:15:56.099Z,212
2016-06-18T04:16:55.511Z,212
2016-06-18T04:17:56.142Z,200
2016-06-18T04:18:55.554Z,204
2016-06-18T04:19:55.606Z,212
2016-06-18T04:20:55.596Z,232
2016-06-18T04:21:55.648Z,240
2016-06-18T04:22:55.651Z,240
2016-06-18T04:23:56.297Z,228
2016-06-18T04:24:56.332Z,220
2016-06-18T04:25:55.742Z,244
2016-06-18T04:26:55.761Z,276
2016-06-18T04:27:55.782Z,276
2016-06-18T04:28:55.816Z,272
2016-06-18T04:29:56.445Z,224
2016-06-18T04:30:56.481Z,204
2016-06-18T04:31:56.499Z,200
2016-06-18T04:32:56.518Z,196
2016-06-18T04:33:56.537Z,200
2016-06-18T04:34:55.962Z,200
2016-06-18T04:35:55.966Z,200
2016-06-18T04:36:55.970Z,192
2016-06-18T04:37:56.019Z,188
2016-06-18T04:38:56.054Z,192
2016-06-18T04:39:56.090Z,188
2016-06-18T04:40:56.702Z,192
2016-06-18T04:41:56.721Z,188
2016-06-18T04:42:56.131Z,192
2016-06-18T04:43:56.150Z,192
2016-06-18T04:44:56.185Z,200
2016-06-18T04:45:56.908Z,200
2016-06-18T04:46:56.223Z,196
2016-06-18T04:47:56.257Z,200
2016-06-18T04:48:56.293Z,204
2016-06-18T04:49:56.296Z,212
2016-06-18T04:50:56.315Z,212
2016-06-18T04:51:56.349Z,216
2016-06-18T04:52:56.353Z,216
2016-06-18T04:53:57.106Z,216
2016-06-18T04:54:56.422Z,216
2016-06-18T04:55:56.442Z,212
2016-06-18T04:56:56.460Z,212
2016-06-18T04:57:56.574Z,212
2016-06-18T04:58:57.123Z,216
2016-06-18T04:59:56.659Z,212
2016-06-18T05:00:56.630Z,216
2016-06-18T05:01:57.821Z,224
2016-06-18T05:02:56.606Z,220
2016-06-18T05:03:56.626Z,220
2016-06-18T05:04:56.660Z,220
2016-06-18T05:05:57.289Z,216
2016-06-18T05:06:57.308Z,216
2016-06-18T05:07:57.326Z,216
2016-06-18T05:08:56.737Z,220
2016-06-18T05:09:56.756Z,224
2016-06-18T05:10:56.805Z,224
2016-06-18T05:11:57.434Z,228
2016-06-18T05:12:56.844Z,224
2016-06-18T05:13:57.473Z,228
2016-06-18T05:14:56.882Z,224
2016-06-18T05:15:57.526Z,232
2016-06-18T05:16:56.935Z,228
2016-06-18T05:17:56.971Z,228
2016-06-18T05:18:56.975Z,228
2016-06-18T05:19:57.602Z,232
2016-06-18T05:20:57.028Z,232
2016-06-18T05:21:57.688Z,232
2016-06-18T05:22:57.691Z,232
2016-06-18T05:23:57.710Z,232
2016-06-18T05:24:57.121Z,232
2016-06-18T05:25:57.232Z,232
2016-06-18T05:26:57.158Z,236
2016-06-18T05:27:57.178Z,236
2016-06-18T05:28:57.274Z,236
2016-06-18T05:29:57.230Z,232
2016-06-18T05:30:57.250Z,236
2016-06-18T05:31:57.362Z,236
2016-06-18T05:32:57.304Z,232
2016-06-18T05:33:57.339Z,236
2016-06-18T05:34:57.419Z,236
2016-06-18T05:35:58.017Z,236
2016-06-18T05:36:57.521Z,236
2016-06-18T05:37:57.446Z,236
2016-06-18T05:38:57.465Z,240
2016-06-18T05:39:57.469Z,236
2016-06-18T05:40:58.160Z,236
2016-06-18T05:41:57.522Z,236
2016-06-18T05:42:57.558Z,240
2016-06-18T05:43:57.576Z,240
2016-06-18T05:44:57.579Z,240
2016-06-18T05:45:58.240Z,240
2016-06-18T05:46:57.633Z,240
2016-06-18T05:47:57.668Z,244
2016-06-18T05:48:57.671Z,240
2016-06-18T05:49:57.707Z,240
2016-06-18T05:50:57.725Z,244
2016-06-18T05:51:57.761Z,244
2016-06-18T05:52:57.779Z,244
2016-06-18T05:53:57.798Z,244
2016-06-18T05:54:58.521Z,248
2016-06-18T05:55:57.852Z,248
2016-06-18T05:56:57.871Z,252
2016-06-18T05:57:58.547Z,252
2016-06-18T05:58:57.910Z,252
2016-06-18T05:59:57.944Z,256
2016-06-18T06:00:58.588Z,256
2016-06-18T06:01:57.982Z,252
2016-06-18T06:02:58.017Z,256
2016-06-18T06:03:58.661Z,256
2016-06-18T06:04:58.148Z,260
2016-06-18T06:05:58.137Z,256
2016-06-18T06:06:58.172Z,260
2016-06-18T06:07:58.191Z,264
2016-06-18T06:08:58.209Z,264
2016-06-18T06:09:58.244Z,264
2016-06-18T06:10:58.294Z,260
2016-06-18T06:11:58.298Z,260
2016-06-18T06:12:58.864Z,260
2016-06-18T06:13:58.445Z,264
2016-06-18T06:14:58.465Z,260
2016-06-18T06:15:58.936Z,264
2016-06-18T06:16:59.112Z,264
2016-06-18T06:17:58.491Z,264
2016-06-18T06:18:59.010Z,264
2016-06-18T06:19:59.653Z,264
2016-06-18T06:20:59.064Z,268
2016-06-18T06:21:58.520Z,264
2016-06-18T06:22:58.538Z,268
2016-06-18T06:23:58.542Z,268
2016-06-18T06:24:58.545Z,268
2016-06-18T06:25:58.550Z,264
2016-06-18T06:26:58.585Z,268
2016-06-18T06:27:58.604Z,268
2016-06-18T06:28:59.859Z,268
2016-06-18T06:29:58.659Z,268
2016-06-18T06:30:58.680Z,268
2016-06-18T06:31:59.324Z,268
2016-06-18T06:32:58.719Z,272
2016-06-18T06:33:58.739Z,272
2016-06-18T06:34:59.382Z,272
2016-06-18T06:35:58.793Z,272
2016-06-18T06:36:59.437Z,272
2016-06-18T06:37:58.846Z,276
2016-06-18T06:38:58.865Z,276
2016-06-18T06:39:59.510Z,280
2016-06-18T06:40:59.529Z,280
2016-06-18T06:41:59.565Z,280
2016-06-18T06:42:59.582Z,280
2016-06-18T06:43:58.977Z,280
2016-06-18T06:44:59.011Z,280
2016-06-18T06:45:59.687Z,280
2016-06-18T06:46:59.675Z,280
2016-06-18T06:48:00.319Z,280
2016-06-18T06:48:59.713Z,280
2016-06-18T06:49:59.138Z,280
2016-06-18T06:51:00.392Z,276
2016-06-18T06:51:59.192Z,280
2016-06-18T06:52:59.212Z,280
2016-06-18T06:53:59.230Z,280
2016-06-18T06:54:59.265Z,284
2016-06-18T06:55:59.894Z,284
2016-06-18T06:56:59.287Z,284
2016-06-18T06:57:59.323Z,288
2016-06-18T06:58:59.357Z,288
2016-06-18T06:59:59.985Z,288
2016-06-18T07:01:00.036Z,288
2016-06-18T07:02:00.055Z,292
2016-06-18T07:02:59.433Z,296
2016-06-18T07:03:59.469Z,296
2016-06-18T07:04:59.486Z,300
2016-06-18T07:05:59.506Z,300
2016-06-18T07:06:59.526Z,300
2016-06-18T07:07:59.560Z,296
2016-06-18T07:08:59.579Z,296
2016-06-18T07:09:59.598Z,296
2016-06-18T07:10:59.617Z,300
2016-06-18T07:11:59.652Z,300
2016-06-18T07:12:59.687Z,300
2016-06-18T07:13:59.690Z,304
2016-06-18T07:14:59.725Z,308
2016-06-18T07:15:59.743Z,308
2016-06-18T07:16:59.778Z,316
2016-06-18T07:18:00.406Z,436
2016-06-18T07:19:00.535Z,316
2016-06-18T07:19:59.852Z,308
2016-06-18T07:20:59.856Z,312
2016-06-18T07:21:59.905Z,316
2016-06-18T07:22:59.924Z,324
2016-06-18T07:23:59.943Z,320
2016-06-18T07:25:00.588Z,316
2016-06-18T07:26:01.091Z,324
2016-06-18T07:27:00.641Z,324
2016-06-18T07:28:00.036Z,328
2016-06-18T07:29:00.069Z,332
2016-06-18T07:30:00.698Z,336
2016-06-18T07:31:00.123Z,368
2016-06-18T07:32:00.127Z,436
2016-06-18T07:33:00.772Z,432
2016-06-18T07:34:00.181Z,364
2016-06-18T07:35:00.919Z,348
2016-06-18T07:36:00.469Z,372
2016-06-18T07:37:00.458Z,364
2016-06-18T07:38:00.367Z,368
2016-06-18T07:39:01.120Z,420
2016-06-18T07:40:01.702Z,380
2016-06-18T07:41:00.471Z,372
2016-06-18T07:42:00.475Z,372
2016-06-18T07:43:00.493Z,376
2016-06-18T07:44:00.496Z,380
2016-06-18T07:45:01.125Z,380
2016-06-18T07:46:00.644Z,392
2016-06-18T07:47:00.757Z,396
2016-06-18T07:48:00.683Z,404
2016-06-18T07:49:00.671Z,404
2016-06-18T07:50:00.689Z,412
2016-06-18T07:51:00.693Z,436
2016-06-18T07:52:00.713Z,468
2016-06-18T07:53:00.699Z,456
2016-06-18T07:54:00.719Z,492
2016-06-18T07:55:01.347Z,500
2016-06-18T07:56:00.726Z,476
2016-06-18T07:57:00.744Z,448
2016-06-18T07:58:01.389Z,448
2016-06-18T07:59:00.784Z,444
2016-06-18T08:00:00.818Z,448
2016-06-18T08:01:00.852Z,452
2016-06-18T08:02:01.481Z,456
2016-06-18T08:03:00.875Z,460
2016-06-18T08:04:01.535Z,468
2016-06-18T08:05:00.960Z,464
2016-06-18T08:06:00.964Z,464
2016-06-18T08:07:00.983Z,472
2016-06-18T08:08:01.001Z,476
2016-06-18T08:09:01.021Z,484
2016-06-18T08:10:01.071Z,484
2016-06-18T08:11:01.700Z,500
2016-06-18T08:12:01.109Z,500
2016-06-18T08:13:01.144Z,508
2016-06-18T08:14:01.773Z,520
2016-06-18T08:15:01.181Z,520
2016-06-18T08:16:01.202Z,528
2016-06-18T08:17:01.235Z,532
2016-06-18T08:18:01.255Z,536
2016-06-18T08:19:01.289Z,540
2016-06-18T08:20:01.325Z,540
2016-06-18T08:21:01.328Z,548
2016-06-18T08:22:01.347Z,560
2016-06-18T08:23:01.381Z,560
2016-06-18T08:24:01.432Z,560
2016-06-18T08:25:01.920Z,560
2016-06-18T08:26:01.470Z,564
2016-06-18T08:27:01.490Z,576
2016-06-18T08:28:01.509Z,580
2016-06-18T08:29:01.543Z,588
2016-06-18T08:30:01.546Z,632
2016-06-18T08:31:02.222Z,664
2016-06-18T08:32:01.616Z,600
2016-06-18T08:33:01.651Z,348
2016-06-18T08:34:01.670Z,360
2016-06-18T08:35:02.298Z,644
2016-06-18T08:36:01.723Z,692
2016-06-18T08:37:02.368Z,1052
2016-06-18T08:38:01.761Z,1196
2016-06-18T08:39:02.406Z,760
2016-06-18T08:40:01.815Z,772
2016-06-18T08:41:01.835Z,476
2016-06-18T08:42:01.854Z,904
2016-06-18T08:43:03.122Z,1596
2016-06-18T08:44:01.909Z,880
2016-06-18T08:47:11.844Z,724
2016-06-18T08:47:21.453Z,724
2016-06-18T08:47:38.000Z,952
2016-06-18T08:48:38.038Z,1140
2016-06-18T08:49:38.060Z,968
2016-06-18T08:50:38.174Z,508
2016-06-18T08:51:38.742Z,816
2016-06-18T08:52:38.153Z,816
2016-06-18T08:53:38.174Z,928
2016-06-18T08:54:39.442Z,1220
2016-06-18T08:55:38.228Z,1864
2016-06-18T08:56:39.497Z,1792
2016-06-18T08:57:38.298Z,1004
2016-06-18T08:58:38.927Z,864
2016-06-18T08:59:38.337Z,868
2016-06-18T09:00:38.981Z,844
2016-06-18T09:01:38.392Z,848
2016-06-18T09:02:38.427Z,880
2016-06-18T09:03:39.070Z,976
2016-06-18T09:04:38.465Z,1432
2016-06-18T09:05:39.109Z,1860
2016-06-18T09:06:38.518Z,1564
2016-06-18T09:07:38.553Z,1552
2016-06-18T09:08:38.572Z,1028
2016-06-18T09:09:38.608Z,1568
2016-06-18T09:10:38.626Z,2336
2016-06-18T09:11:38.660Z,2180
2016-06-18T09:12:38.680Z,1484
2016-06-18T09:13:38.715Z,860
2016-06-18T09:14:38.750Z,1016
2016-06-18T09:15:38.784Z,1284
2016-06-18T09:16:40.022Z,780
2016-06-18T09:17:38.823Z,932
2016-06-18T09:20:16.113Z,1132
2016-06-18T09:21:16.178Z,1464
2016-06-18T09:22:15.572Z,2016
2016-06-18T09:23:15.607Z,2004
2016-06-18T09:24:16.549Z,1592
2016-06-18T09:25:15.677Z,1460
2016-06-18T09:26:15.758Z,1800
2016-06-18T09:27:16.324Z,1412
2016-06-18T09:28:15.797Z,1192
2016-06-18T09:29:16.425Z,1772
2016-06-18T09:30:15.756Z,1176
2016-06-18T09:31:16.557Z,1368
2016-06-18T09:32:15.796Z,2348
2016-06-18T09:33:16.424Z,2208
2016-06-18T09:34:16.458Z,1812
2016-06-18T09:35:16.524Z,1292
2016-06-18T09:36:16.527Z,1432
2016-06-18T09:37:15.921Z,1404
2016-06-18T09:38:15.941Z,1352
2016-06-18T09:39:16.616Z,1316
2016-06-18T09:40:18.151Z,1572
2016-06-18T09:41:16.670Z,1188
2016-06-18T09:42:16.080Z,1188
2016-06-18T09:43:16.099Z,1200
2016-06-18T09:44:16.117Z,1236
2016-06-18T09:45:16.761Z,1068
2016-06-18T09:46:17.422Z,1392
2016-06-18T09:47:16.378Z,1476
2016-06-18T09:48:16.271Z,1312
2016-06-18T09:49:16.275Z,1376
2016-06-18T09:50:16.294Z,1404
2016-06-18T09:51:16.407Z,1088
2016-06-18T09:52:16.990Z,1964
2016-06-18T09:53:17.008Z,1384
2016-06-18T09:54:16.464Z,840
2016-06-18T09:55:16.468Z,2056
2016-06-18T09:56:17.081Z,2804
2016-06-18T09:57:16.491Z,3296
2016-06-18T09:58:16.510Z,3100
2016-06-18T09:59:16.544Z,2428
2016-06-18T10:00:16.579Z,1696
2016-06-18T10:01:18.020Z,1864
2016-06-18T10:02:17.477Z,940
2016-06-18T10:03:16.667Z,1240
2016-06-18T10:04:17.312Z,2540
2016-06-18T10:05:16.721Z,2460
2016-06-18T10:06:16.741Z,2284
2016-06-18T10:07:16.775Z,1848
2016-06-18T10:08:17.420Z,664
2016-06-18T10:09:17.455Z,748
2016-06-18T10:10:17.473Z,1624
2016-06-18T10:11:16.883Z,928
2016-06-18T10:12:17.543Z,2072
2016-06-18T10:13:16.968Z,1992
2016-06-18T10:14:16.986Z,1800
2016-06-18T10:15:17.005Z,1776
2016-06-18T10:16:17.040Z,2276
2016-06-18T10:17:17.076Z,2984
2016-06-18T10:18:18.516Z,3172
2016-06-18T10:19:17.129Z,2012
2016-06-18T10:20:17.774Z,1980
2016-06-18T10:21:17.183Z,2144
2016-06-18T10:22:17.233Z,2348
2016-06-18T10:23:17.878Z,1912
2016-06-18T10:24:17.271Z,1892
2016-06-18T10:25:17.337Z,1940
2016-06-18T10:26:17.965Z,1868
2016-06-18T10:27:17.375Z,1688
2016-06-18T10:28:17.410Z,1388
2016-06-18T10:29:17.492Z,744
2016-06-18T10:30:17.464Z,1788
2016-06-18T10:31:17.499Z,1744
2016-06-18T10:32:17.517Z,1732
2016-06-18T10:33:17.553Z,1740
2016-06-18T10:34:17.571Z,1772
2016-06-18T10:35:17.638Z,1852
2016-06-18T10:36:17.641Z,1972
2016-06-18T10:37:18.456Z,2080
2016-06-18T10:38:17.695Z,2244
2016-06-18T10:39:17.730Z,2652
2016-06-18T10:40:18.483Z,3396
2016-06-18T10:41:18.517Z,3268
2016-06-18T10:42:17.802Z,2116
2016-06-18T10:43:18.555Z,1988
2016-06-18T10:44:17.902Z,2256
2016-06-18T10:45:17.907Z,3072
2016-06-18T10:46:17.926Z,3240
2016-06-18T10:47:17.960Z,2784
2016-06-18T10:48:17.994Z,2784
2016-06-18T10:49:18.030Z,3272
2016-06-18T10:50:18.159Z,3704
2016-06-18T10:51:18.787Z,5036
2016-06-18T10:52:18.353Z,4196
2016-06-18T10:53:20.153Z,4604
2016-06-18T10:54:19.532Z,3696
2016-06-18T10:55:18.816Z,3040
2016-06-18T10:56:18.366Z,2204
2016-06-18T10:57:18.995Z,2620
2016-06-18T10:58:18.920Z,2880
2016-06-18T10:59:19.143Z,2884
2016-06-18T11:00:18.537Z,2956
2016-06-18T11:01:19.025Z,3648
2016-06-18T11:02:18.559Z,4272
2016-06-18T11:03:18.547Z,4932
2016-06-18T11:04:18.550Z,4312
2016-06-18T11:05:18.570Z,4304
2016-06-18T11:06:19.167Z,4404
2016-06-18T11:07:18.577Z,4320
2016-06-18T11:08:18.627Z,3928
2016-06-18T11:09:19.256Z,3588
2016-06-18T11:10:18.681Z,3732
2016-06-18T11:11:19.324Z,3640
2016-06-18T11:12:18.735Z,3716
2016-06-18T11:13:18.753Z,3636
2016-06-18T11:14:18.803Z,3264
2016-06-18T11:15:18.823Z,3168
2016-06-18T11:16:18.857Z,3520
2016-06-18T11:17:18.892Z,3472
2016-06-18T11:18:18.927Z,3132
2016-06-18T11:19:18.962Z,3772
2016-06-18T11:20:19.043Z,3332
2016-06-18T11:21:19.016Z,3324
2016-06-18T11:22:19.051Z,3688
2016-06-18T11:23:19.084Z,3012
2016-06-18T11:24:19.730Z,3504
2016-06-18T11:25:19.777Z,3296
2016-06-18T11:26:19.813Z,3524
2016-06-18T11:28:23.319Z,2764
2016-06-18T11:28:32.803Z,2708
2016-06-18T11:29:32.854Z,1848
2016-06-18T11:30:32.216Z,2976
2016-06-18T11:31:32.267Z,1712
2016-06-18T11:32:32.943Z,3756
2016-06-18T11:33:32.930Z,4112
2016-06-18T11:34:32.355Z,4636
2016-06-18T11:41:34.292Z,4284
2016-06-18T11:42:34.279Z,2896
2016-06-18T11:43:34.439Z,2380
2016-06-18T11:44:35.678Z,1976
2016-06-18T11:45:34.446Z,3428
2016-06-18T11:46:34.449Z,3016
2016-06-18T11:47:34.454Z,3172
2016-06-18T11:48:34.597Z,3140
2016-06-18T11:49:45.463Z,2540
2016-06-18T11:50:35.245Z,3896
2016-06-18T11:51:34.639Z,3696
2016-06-18T11:52:34.643Z,4120
2016-06-18T11:53:35.271Z,3336
2016-06-18T11:54:35.275Z,2228
2016-06-18T11:55:35.341Z,2500
2016-06-18T11:56:34.657Z,3048
2016-06-18T11:57:34.707Z,3504
2016-06-18T11:58:34.727Z,3300
2016-06-18T11:59:35.372Z,3120
2016-06-18T12:00:34.798Z,2824
2016-06-18T12:01:34.835Z,4156
2016-06-18T12:02:34.870Z,3388
2016-06-18T12:03:35.499Z,3832
2016-06-18T12:04:34.926Z,3628
2016-06-18T12:05:34.976Z,3744
2016-06-18T12:06:35.605Z,4384
2016-06-18T12:07:35.655Z,5108
2016-06-18T12:08:35.066Z,4824
2016-06-18T12:09:35.100Z,4912
2016-06-18T12:10:35.120Z,5192
2016-06-18T12:11:35.169Z,5564
2016-06-18T12:12:35.814Z,5844
2016-06-18T12:13:35.223Z,5608
2016-06-18T12:14:35.258Z,5868
2016-06-18T12:15:35.293Z,4904
2016-06-18T12:16:35.953Z,6128
2016-06-18T12:17:35.956Z,6644
2016-06-18T12:18:35.383Z,6788
2016-06-18T12:19:35.433Z,6148
2016-06-18T12:20:35.452Z,6068
2016-06-18T12:21:36.097Z,3912
2016-06-18T12:22:35.522Z,7276
2016-06-18T12:23:36.166Z,6252
2016-06-18T12:24:35.591Z,7408
2016-06-18T12:25:35.611Z,7144
2016-06-18T12:26:37.005Z,5692
2016-06-18T12:27:35.680Z,6544
2016-06-18T12:28:35.715Z,6532
2016-06-18T12:29:35.750Z,7220
2016-06-18T12:30:35.784Z,6240
2016-06-18T12:31:36.444Z,5840
2016-06-18T12:32:35.868Z,5884
2016-06-18T12:33:36.607Z,4948
2016-06-18T12:34:36.625Z,4256
2016-06-18T12:35:36.004Z,4052
2016-06-18T12:36:36.633Z,4068
2016-06-18T12:37:36.636Z,4148
2016-06-18T12:38:36.062Z,4212
2016-06-18T12:39:36.097Z,4348
2016-06-18T12:40:36.132Z,4680
2016-06-18T12:41:36.775Z,5212
2016-06-18T12:42:36.825Z,6152
2016-06-18T12:43:36.220Z,5000
2016-06-18T12:44:36.896Z,5892
2016-06-18T12:45:36.305Z,5476
2016-06-18T12:46:36.949Z,6616
2016-06-18T12:47:36.984Z,5204
2016-06-18T12:48:36.393Z,4544
2016-06-18T12:49:36.428Z,4252
2016-06-18T12:50:36.478Z,4588
2016-06-18T12:51:36.514Z,4492
2016-06-18T12:52:36.549Z,4408
2016-06-18T12:53:37.193Z,3876
2016-06-18T12:54:36.634Z,3120
2016-06-18T12:55:37.872Z,2952
2016-06-18T12:56:36.673Z,3040
2016-06-18T12:57:36.724Z,3540
2016-06-18T12:58:37.383Z,4108
2016-06-18T12:59:37.418Z,4540
2016-06-18T13:00:36.843Z,4860
2016-06-18T13:01:37.471Z,4196
2016-06-18T13:02:36.897Z,3752
2016-06-18T13:03:36.916Z,3312
2016-06-18T13:04:36.966Z,3184
2016-06-18T13:05:37.610Z,3344
2016-06-18T13:06:37.035Z,3568
2016-06-18T13:07:37.196Z,3604
2016-06-18T13:08:37.105Z,3584
2016-06-18T13:09:37.749Z,3480
2016-06-18T13:10:37.268Z,3396
2016-06-18T13:11:37.210Z,3388
2016-06-18T13:12:37.322Z,3384
2016-06-18T13:13:37.888Z,3308
2016-06-18T13:14:37.313Z,3308
2016-06-18T13:15:37.348Z,3284
2016-06-18T13:16:37.367Z,3160
2016-06-18T13:17:37.417Z,3144
2016-06-18T13:18:37.451Z,3044
2016-06-18T13:19:38.096Z,2964
2016-06-18T13:20:37.522Z,2884
2016-06-18T13:21:37.556Z,2888
2016-06-18T13:22:37.591Z,2884
2016-06-18T13:23:38.236Z,3048
2016-06-18T13:24:38.271Z,3228
2016-06-18T13:25:37.698Z,3456
2016-06-18T13:26:37.733Z,3536
2016-06-18T13:27:37.754Z,3556
2016-06-18T13:28:37.805Z,3528
2016-06-18T13:29:37.824Z,3384
2016-06-18T13:30:38.485Z,3216
2016-06-18T13:31:37.895Z,3032
2016-06-18T13:32:37.930Z,2864
2016-06-18T13:33:37.980Z,2680
2016-06-18T13:34:38.001Z,2824
2016-06-18T13:35:38.052Z,3492
2016-06-18T13:36:39.336Z,6496
2016-06-18T13:37:38.121Z,8888
2016-06-18T13:38:38.140Z,8812
2016-06-18T13:39:38.175Z,8504
2016-06-18T13:40:38.240Z,7288
2016-06-18T13:41:38.260Z,6796
2016-06-18T13:42:38.279Z,6484
2016-06-18T13:43:38.939Z,6124
2016-06-18T13:44:38.974Z,6136
2016-06-18T13:45:39.008Z,6012
2016-06-18T13:46:38.512Z,5384
2016-06-18T13:47:38.531Z,5528
2016-06-18T13:48:38.534Z,5572
2016-06-18T13:49:38.538Z,6468
2016-06-18T13:50:39.182Z,5432
2016-06-18T13:51:38.608Z,5520
2016-06-18T13:52:39.251Z,6156
2016-06-18T13:53:38.677Z,5252
2016-06-18T13:54:39.414Z,6240
2016-06-18T13:55:39.433Z,6108
2016-06-18T13:56:38.765Z,5068
2016-06-18T13:57:39.534Z,5952